createdAt,value
2018-07-24T00:00:55.221Z,101115.83
2018-07-24T00:03:23.437Z,101112.50
2018-07-24T00:05:51.688Z,101114.48
2018-07-24T00:08:19.949Z,101108.69
2018-07-24T00:10:48.203Z,101102.89
2018-07-24T00:13:16.392Z,101108.08
2018-07-24T00:15:44.615Z,101105.70
2018-07-24T00:18:12.897Z,101107.77
2018-07-24T00:20:41.141Z,101105.78
2018-07-24T00:23:09.377Z,101106.82
2018-07-24T00:25:37.607Z,101107.54
2018-07-24T00:28:05.833Z,101099.02
2018-07-24T00:30:34.101Z,101103.27
2018-07-24T00:33:02.350Z,101105.05
2018-07-24T00:35:30.604Z,101097.98
2018-07-24T00:37:58.817Z,101095.80
2018-07-24T00:40:27.059Z,101096.12
2018-07-24T00:42:55.280Z,101090.73
2018-07-24T00:45:23.518Z,101092.59
2018-07-24T00:47:51.755Z,101092.80
2018-07-24T00:50:19.976Z,101093.31
2018-07-24T00:52:48.296Z,101092.36
2018-07-24T00:55:16.588Z,101089.55
2018-07-24T00:57:44.857Z,101089.55
2018-07-24T01:00:13.125Z,101090.47
2018-07-24T01:02:41.709Z,101081.39
2018-07-24T01:05:10.176Z,101081.59
2018-07-24T01:07:39.016Z,101083.45
2018-07-24T01:10:08.329Z,101088.22
2018-07-24T01:12:36.559Z,101083.45
2018-07-24T01:15:05.453Z,101081.36
2018-07-24T01:17:33.686Z,101077.59
2018-07-24T01:20:01.902Z,101088.17
2018-07-24T01:22:30.357Z,101082.34
2018-07-24T01:24:58.590Z,101079.12
2018-07-24T01:27:26.832Z,101076.23
2018-07-24T01:29:55.065Z,101076.36
2018-07-24T01:32:23.317Z,101077.59
2018-07-24T01:34:51.529Z,101074.06
2018-07-24T01:37:19.863Z,101076.12
2018-07-24T01:39:48.089Z,101073.11
2018-07-24T01:42:16.347Z,101072.08
2018-07-24T01:44:44.661Z,101077.47
2018-07-24T01:47:12.909Z,101070.02
2018-07-24T01:49:41.128Z,101069.70
2018-07-24T01:52:09.352Z,101067.84
2018-07-24T01:54:37.573Z,101070.02
2018-07-24T01:57:05.829Z,101071.36
2018-07-24T01:59:34.045Z,101067.32
2018-07-24T02:02:02.261Z,101071.05
2018-07-24T02:04:30.505Z,101067.72
2018-07-24T02:06:58.709Z,101070.61
2018-07-24T02:09:26.932Z,101064.07
2018-07-24T02:11:55.133Z,101071.20
2018-07-24T02:14:23.390Z,101069.54
2018-07-24T02:16:51.628Z,101066.53
2018-07-24T02:19:19.852Z,101064.06
2018-07-24T02:21:48.096Z,101065.92
2018-07-24T02:24:16.321Z,101060.41
2018-07-24T02:26:44.540Z,101059.27
2018-07-24T02:29:12.845Z,101063.30
2018-07-24T02:31:41.067Z,101058.31
2018-07-24T02:34:09.277Z,101064.48
2018-07-24T02:36:37.526Z,101060.43
2018-07-24T02:39:09.117Z,101058.96
2018-07-24T02:41:37.353Z,101055.95
2018-07-24T02:44:05.605Z,101058.72
2018-07-24T02:46:33.841Z,101060.14
2018-07-24T02:49:02.082Z,101056.09
2018-07-24T02:51:30.493Z,101060.84
2018-07-24T02:53:58.705Z,101063.61
2018-07-24T02:56:27.293Z,101061.95
2018-07-24T02:58:55.507Z,101063.17
2018-07-24T03:01:23.788Z,101063.98
2018-07-24T03:03:52.013Z,101061.88
2018-07-24T03:06:20.291Z,101063.28
2018-07-24T03:08:48.506Z,101057.77
2018-07-24T03:11:16.754Z,101063.39
2018-07-24T03:13:45.006Z,101056.94
2018-07-24T03:16:13.275Z,101057.58
2018-07-24T03:18:41.479Z,101060.59
2018-07-24T03:21:09.693Z,101058.09
2018-07-24T03:23:37.912Z,101052.61
2018-07-24T03:26:06.221Z,101059.73
2018-07-24T03:28:34.437Z,101057.94
2018-07-24T03:31:02.677Z,101057.81
2018-07-24T03:33:30.924Z,101056.27
2018-07-24T03:35:59.473Z,101060.44
2018-07-24T03:38:27.721Z,101051.34
2018-07-24T03:40:55.983Z,101053.33
2018-07-24T03:43:24.249Z,101052.61
2018-07-24T03:45:52.456Z,101055.41
2018-07-24T03:48:21.109Z,101054.77
2018-07-24T03:50:49.312Z,101056.41
2018-07-24T03:53:17.568Z,101058.45
2018-07-24T03:55:45.778Z,101053.39
2018-07-24T03:58:14.013Z,101057.75
2018-07-24T04:00:42.638Z,101056.72
2018-07-24T04:03:10.853Z,101055.38
2018-07-24T04:05:39.105Z,101063.33
2018-07-24T04:08:07.304Z,101060.19
2018-07-24T04:10:35.529Z,101058.91
2018-07-24T04:13:03.734Z,101061.82
2018-07-24T04:15:31.983Z,101065.86
2018-07-24T04:18:00.220Z,101070.41
2018-07-24T04:20:28.456Z,101056.95
2018-07-24T04:22:56.684Z,101064.52
2018-07-24T04:25:24.893Z,101057.98
2018-07-24T04:27:53.137Z,101062.59
2018-07-24T04:30:21.359Z,101061.50
2018-07-24T04:32:49.592Z,101063.97
2018-07-24T04:35:17.808Z,101060.95
2018-07-24T04:37:46.056Z,101061.27
2018-07-24T04:40:14.328Z,101061.08
2018-07-24T04:42:42.469Z,101059.52
2018-07-24T04:45:10.724Z,101057.78
2018-07-24T04:47:38.940Z,101052.72
2018-07-24T04:50:07.213Z,101056.25
2018-07-24T04:52:35.424Z,101057.91
2018-07-24T04:55:03.706Z,101059.39
2018-07-24T04:57:31.936Z,101058.75
2018-07-24T05:00:00.161Z,101057.08
2018-07-24T05:02:28.378Z,101057.41
2018-07-24T05:04:56.625Z,101060.61
2018-07-24T05:07:24.838Z,101065.47
2018-07-24T05:09:53.066Z,101064.45
2018-07-24T05:12:21.290Z,101064.45
2018-07-24T05:14:49.504Z,101054.33
2018-07-24T05:17:17.728Z,101060.34
2018-07-24T05:19:45.960Z,101069.38
2018-07-24T05:22:14.184Z,101064.70
2018-07-24T05:24:42.467Z,101063.68
2018-07-24T05:27:11.440Z,101070.24
2018-07-24T05:29:40.927Z,101067.34
2018-07-24T05:32:09.444Z,101069.59
2018-07-24T05:34:37.776Z,101070.29
2018-07-24T05:37:06.009Z,101074.38
2018-07-24T05:39:34.277Z,101069.38
2018-07-24T05:42:02.552Z,101073.41
2018-07-24T05:44:30.752Z,101067.61
2018-07-24T05:46:58.977Z,101068.96
2018-07-24T05:49:27.204Z,101074.34
2018-07-24T05:51:55.501Z,101067.80
2018-07-24T05:54:23.791Z,101065.11
2018-07-24T05:56:51.942Z,101065.62
2018-07-24T05:59:20.188Z,101064.92
2018-07-24T06:01:48.428Z,101065.03
2018-07-24T06:04:16.636Z,101070.22
2018-07-24T06:06:44.948Z,101066.63
2018-07-24T06:09:13.188Z,101063.56
2018-07-24T06:11:41.452Z,101062.16
2018-07-24T06:14:09.704Z,101062.61
2018-07-24T06:16:38.014Z,101065.95
2018-07-24T06:19:06.188Z,101060.89
2018-07-24T06:21:34.437Z,101066.72
2018-07-24T06:24:02.657Z,101060.95
2018-07-24T06:26:30.865Z,101059.52
2018-07-24T06:28:59.080Z,101066.50
2018-07-24T06:31:27.345Z,101063.04
2018-07-24T06:33:55.546Z,101058.91
2018-07-24T06:36:24.188Z,101052.30
2018-07-24T06:38:52.408Z,101059.28
2018-07-24T06:41:20.653Z,101057.75
2018-07-24T06:43:48.881Z,101052.17
2018-07-24T06:46:17.093Z,101058.92
2018-07-24T06:48:45.329Z,101065.59
2018-07-24T06:51:13.559Z,101062.51
2018-07-24T06:53:41.784Z,101063.85
2018-07-24T06:56:10.001Z,101063.98
2018-07-24T06:58:38.248Z,101062.76
2018-07-24T07:01:06.576Z,101063.36
2018-07-24T07:03:34.829Z,101063.69
2018-07-24T07:06:03.172Z,101065.34
2018-07-24T07:08:31.424Z,101058.98
2018-07-24T07:10:59.612Z,101061.83
2018-07-24T07:13:27.887Z,101056.66
2018-07-24T07:15:56.032Z,101051.00
2018-07-24T07:18:24.332Z,101057.75
2018-07-24T07:20:52.572Z,101047.22
2018-07-24T07:23:20.816Z,101052.92
2018-07-24T07:25:49.046Z,101050.47
2018-07-24T07:28:17.265Z,101048.30
2018-07-24T07:30:45.496Z,101052.58
2018-07-24T07:33:13.732Z,101047.11
2018-07-24T07:35:41.940Z,101043.58
2018-07-24T07:38:10.168Z,101037.39
2018-07-24T07:40:38.440Z,101042.70
2018-07-24T07:43:06.724Z,101039.80
2018-07-24T07:45:34.959Z,101039.89
2018-07-24T07:48:03.169Z,101037.63
2018-07-24T07:50:31.393Z,101033.32
2018-07-24T07:52:59.736Z,101034.87
2018-07-24T07:55:27.977Z,101030.22
2018-07-24T07:57:56.525Z,101028.98
2018-07-24T08:00:24.748Z,101030.23
2018-07-24T08:02:53.508Z,101032.22
2018-07-24T08:05:21.717Z,101027.73
2018-07-24T08:07:49.944Z,101030.02
2018-07-24T08:10:18.179Z,101025.89
2018-07-24T08:12:46.441Z,101029.53
2018-07-24T08:15:14.664Z,101024.32
2018-07-24T08:17:42.865Z,101026.52
2018-07-24T08:20:11.097Z,101022.78
2018-07-24T08:22:39.353Z,101023.41
2018-07-24T08:25:07.588Z,101020.61
2018-07-24T08:27:35.812Z,101020.80
2018-07-24T08:30:04.077Z,101020.39
2018-07-24T08:32:32.280Z,101024.34
2018-07-24T08:35:00.569Z,101018.08
2018-07-24T08:37:28.821Z,101013.66
2018-07-24T08:39:57.052Z,101012.31
2018-07-24T08:42:25.278Z,101013.63
2018-07-24T08:44:53.546Z,101015.50
2018-07-24T08:47:21.754Z,101015.08
2018-07-24T08:49:50.012Z,101008.20
2018-07-24T08:52:18.276Z,101011.10
2018-07-24T08:54:46.677Z,101015.88
2018-07-24T08:57:14.788Z,101007.25
2018-07-24T08:59:43.004Z,101008.61
2018-07-24T09:02:11.275Z,101006.84
2018-07-24T09:04:39.520Z,101008.25
2018-07-24T09:07:08.084Z,101010.75
2018-07-24T09:09:36.319Z,101003.99
2018-07-24T09:12:04.553Z,100999.52
2018-07-24T09:14:32.794Z,100993.91
2018-07-24T09:17:01.023Z,100999.52
2018-07-24T09:19:29.227Z,100999.98
2018-07-24T09:21:57.460Z,100999.56
2018-07-24T09:24:25.702Z,100995.61
2018-07-24T09:26:53.949Z,101001.98
2018-07-24T09:29:22.624Z,100996.73
2018-07-24T09:31:50.866Z,100999.02
2018-07-24T09:34:19.072Z,100995.16
2018-07-24T09:36:47.334Z,100997.44
2018-07-24T09:39:15.708Z,100990.98
2018-07-24T09:41:43.912Z,100992.70
2018-07-24T09:44:12.120Z,100989.98
2018-07-24T09:46:40.308Z,100994.23
2018-07-24T09:49:08.552Z,100992.81
2018-07-24T09:51:36.774Z,100993.53
2018-07-24T09:54:05.024Z,100993.10
2018-07-24T09:56:33.332Z,100971.28
2018-07-24T09:59:01.548Z,100991.16
2018-07-24T10:01:31.602Z,100978.95
2018-07-24T10:04:00.358Z,100977.35
2018-07-24T10:06:28.592Z,100973.26
2018-07-24T10:08:56.837Z,100963.80
2018-07-24T10:11:31.650Z,100962.63
2018-07-24T10:14:00.017Z,100967.91
2018-07-24T10:16:28.301Z,100954.99
2018-07-24T10:18:56.511Z,100953.03
2018-07-24T10:21:24.684Z,100951.71
2018-07-24T10:23:53.873Z,100949.75
2018-07-24T10:26:22.096Z,100939.86
2018-07-24T10:28:50.329Z,100949.20
2018-07-24T10:31:18.569Z,100946.92
2018-07-24T10:33:46.852Z,100936.17
2018-07-24T10:36:15.073Z,100937.59
2018-07-24T10:38:43.324Z,100929.62
2018-07-24T10:41:11.610Z,100935.33
2018-07-24T10:43:39.826Z,100932.02
2018-07-24T10:46:08.072Z,100929.30
2018-07-24T10:48:36.284Z,100922.46
2018-07-24T10:51:04.617Z,100915.84
2018-07-24T10:53:32.815Z,100923.28
2018-07-24T10:56:01.033Z,100921.98
2018-07-24T10:58:29.241Z,100919.84
2018-07-24T11:00:57.520Z,100921.08
2018-07-24T11:03:25.728Z,100927.30
2018-07-24T11:05:54.053Z,100923.20
2018-07-24T11:08:22.276Z,100918.41
2018-07-24T11:10:50.556Z,100917.59
2018-07-24T11:13:18.757Z,100911.75
2018-07-24T11:15:46.988Z,100908.39
2018-07-24T11:18:15.189Z,100908.44
2018-07-24T11:20:43.408Z,100901.59
2018-07-24T11:23:11.725Z,100902.62
2018-07-24T11:25:39.876Z,100900.22
2018-07-24T11:28:08.168Z,100897.34
2018-07-24T11:30:36.388Z,100896.36
2018-07-24T11:33:04.673Z,100892.14
2018-07-24T11:35:32.895Z,100890.84
2018-07-24T11:38:01.141Z,100887.69
2018-07-24T11:40:29.403Z,100881.33
2018-07-24T11:42:57.629Z,100881.66
2018-07-24T11:45:25.872Z,100877.08
2018-07-24T11:47:54.100Z,100883.19
2018-07-24T11:50:22.344Z,100882.16
2018-07-24T11:52:50.574Z,100881.69
2018-07-24T11:55:18.808Z,100881.13
2018-07-24T11:57:47.086Z,100879.22
2018-07-24T12:00:15.264Z,100881.20
2018-07-24T12:02:43.505Z,100873.55
2018-07-24T12:05:11.713Z,100880.19
2018-07-24T12:07:39.973Z,100872.06
2018-07-24T12:10:08.217Z,100870.16
2018-07-24T12:12:36.448Z,100872.12
2018-07-24T12:15:05.720Z,100871.34
2018-07-24T12:17:33.981Z,100858.78
2018-07-24T12:20:02.196Z,100864.84
2018-07-24T12:22:30.408Z,100864.83
2018-07-24T12:24:58.720Z,100858.27
2018-07-24T12:27:26.957Z,100865.45
2018-07-24T12:29:55.214Z,100860.84
2018-07-24T12:32:23.420Z,100852.08
2018-07-24T12:34:51.636Z,100860.86
2018-07-24T12:37:22.957Z,100852.38
2018-07-24T12:39:51.160Z,100854.86
2018-07-24T12:42:19.391Z,100852.11
2018-07-24T12:44:47.597Z,100854.56
2018-07-24T12:47:15.836Z,100848.00
2018-07-24T12:49:44.049Z,100844.74
2018-07-24T12:52:12.264Z,100842.27
2018-07-24T12:54:40.528Z,100845.56
2018-07-24T12:57:08.771Z,100843.91
2018-07-24T12:59:36.996Z,100834.31
2018-07-24T13:02:05.268Z,100836.78
2018-07-24T13:04:33.468Z,100840.06
2018-07-24T13:07:01.711Z,100827.47
2018-07-24T13:09:29.920Z,100821.13
2018-07-24T13:11:58.176Z,100826.39
2018-07-24T13:14:26.377Z,100832.96
2018-07-24T13:16:54.640Z,100813.27
2018-07-24T13:19:22.856Z,100820.09
2018-07-24T13:21:51.064Z,100824.72
2018-07-24T13:24:19.312Z,100811.03
2018-07-24T13:26:47.713Z,100812.95
2018-07-24T13:29:15.949Z,100816.51
2018-07-24T13:31:44.258Z,100813.77
2018-07-24T13:34:12.425Z,100802.81
2018-07-24T13:36:41.156Z,100805.55
2018-07-24T13:39:10.721Z,100796.55
2018-07-24T13:41:39.082Z,100801.72
2018-07-24T13:44:07.677Z,100801.13
2018-07-24T13:46:35.889Z,100794.59
2018-07-24T13:49:04.184Z,100797.55
2018-07-24T13:51:32.460Z,100796.19
2018-07-24T13:54:00.668Z,100799.73
2018-07-24T13:56:28.939Z,100799.15
2018-07-24T13:58:57.199Z,100794.77
2018-07-24T14:01:25.385Z,100794.80
2018-07-24T14:03:53.616Z,100789.33
2018-07-24T14:06:21.854Z,100786.36
2018-07-24T14:08:50.064Z,100784.73
2018-07-24T14:11:18.453Z,100783.91
2018-07-24T14:13:46.669Z,100785.31
2018-07-24T14:16:14.873Z,100782.58
2018-07-24T14:18:43.120Z,100774.83
2018-07-24T14:21:11.332Z,100776.16
2018-07-24T14:23:39.552Z,100772.45
2018-07-24T14:26:07.913Z,100766.05
2018-07-24T14:28:36.193Z,100766.45
2018-07-24T14:31:04.452Z,100763.23
2018-07-24T14:33:32.690Z,100764.39
2018-07-24T14:36:00.901Z,100759.51
2018-07-24T14:38:29.125Z,100762.48
2018-07-24T14:40:57.409Z,100756.17
2018-07-24T14:43:25.688Z,100750.97
2018-07-24T14:45:53.939Z,100751.02
2018-07-24T14:48:22.308Z,100757.05
2018-07-24T14:50:50.508Z,100760.89
2018-07-24T14:53:18.812Z,100751.02
2018-07-24T14:55:47.061Z,100752.39
2018-07-24T14:58:15.281Z,100747.19
2018-07-24T15:00:43.536Z,100757.32
2018-07-24T15:03:11.769Z,100750.75
2018-07-24T15:05:39.988Z,100749.11
2018-07-24T15:08:08.209Z,100746.09
2018-07-24T15:10:36.424Z,100747.19
2018-07-24T15:13:04.642Z,100742.80
2018-07-24T15:15:32.857Z,100743.60
2018-07-24T15:18:01.100Z,100737.89
2018-07-24T15:20:29.433Z,100736.76
2018-07-24T15:22:57.652Z,100731.25
2018-07-24T15:25:25.955Z,100732.27
2018-07-24T15:27:54.252Z,100730.08
2018-07-24T15:30:22.468Z,100727.72
2018-07-24T15:32:50.673Z,100729.05
2018-07-24T15:35:18.925Z,100726.29
2018-07-24T15:37:47.125Z,100724.31
2018-07-24T15:40:15.321Z,100730.62
2018-07-24T15:42:43.548Z,100727.58
2018-07-24T15:45:11.760Z,100722.64
2018-07-24T15:47:40.052Z,100723.00
2018-07-24T15:50:08.288Z,100725.81
2018-07-24T15:52:36.551Z,100719.53
2018-07-24T15:55:04.876Z,100715.98
2018-07-24T15:57:33.111Z,100719.83
2018-07-24T16:00:01.373Z,100714.86
2018-07-24T16:02:29.801Z,100708.75
2018-07-24T16:04:57.976Z,100710.30
2018-07-24T16:07:26.181Z,100717.19
2018-07-24T16:09:54.402Z,100707.75
2018-07-24T16:12:22.640Z,100710.95
2018-07-24T16:14:50.828Z,100708.88
2018-07-24T16:17:19.041Z,100711.25
2018-07-24T16:19:47.261Z,100706.67
2018-07-24T16:22:15.612Z,100713.23
2018-07-24T16:24:43.836Z,100709.17
2018-07-24T16:27:12.081Z,100705.39
2018-07-24T16:29:40.345Z,100702.92
2018-07-24T16:32:08.588Z,100700.71
2018-07-24T16:34:36.856Z,100700.97
2018-07-24T16:37:05.189Z,100704.13
2018-07-24T16:39:33.488Z,100697.49
2018-07-24T16:42:01.705Z,100696.29
2018-07-24T16:44:30.168Z,100695.88
2018-07-24T16:46:58.416Z,100691.36
2018-07-24T16:49:26.680Z,100692.03
2018-07-24T16:51:54.916Z,100696.94
2018-07-24T16:54:23.140Z,100695.39
2018-07-24T16:56:51.339Z,100693.88
2018-07-24T16:59:19.540Z,100683.06
2018-07-24T17:01:47.768Z,100685.60
2018-07-24T17:04:15.992Z,100689.38
2018-07-24T17:06:44.212Z,100682.31
2018-07-24T17:09:12.956Z,100687.73
2018-07-24T17:11:41.464Z,100683.25
2018-07-24T17:14:09.664Z,100680.80
2018-07-24T17:16:37.917Z,100672.11
2018-07-24T17:19:06.121Z,100680.32
2018-07-24T17:21:34.332Z,100679.42
2018-07-24T17:24:02.661Z,100680.63
2018-07-24T17:26:31.443Z,100682.95
2018-07-24T17:28:59.631Z,100678.71
2018-07-24T17:31:27.824Z,100685.28
2018-07-24T17:33:56.051Z,100679.55
2018-07-24T17:36:24.272Z,100682.92
2018-07-24T17:38:52.502Z,100680.26
2018-07-24T17:41:20.707Z,100679.50
2018-07-24T17:43:48.921Z,100678.95
2018-07-24T17:46:17.166Z,100682.56
2018-07-24T17:48:45.428Z,100680.98
2018-07-24T17:51:13.676Z,100684.03
2018-07-24T17:53:41.953Z,100682.67
2018-07-24T17:56:10.116Z,100680.80
2018-07-24T17:58:38.384Z,100684.59
2018-07-24T18:01:06.668Z,100685.69
2018-07-24T18:03:35.330Z,100688.13
2018-07-24T18:06:03.599Z,100689.42
2018-07-24T18:08:31.874Z,100693.78
2018-07-24T18:11:00.125Z,100689.62
2018-07-24T18:13:28.336Z,100692.58
2018-07-24T18:15:56.583Z,100687.36
2018-07-24T18:18:24.804Z,100691.10
2018-07-24T18:20:53.025Z,100694.61
2018-07-24T18:23:21.624Z,100698.95
2018-07-24T18:25:49.844Z,100693.97
2018-07-24T18:28:18.101Z,100691.19
2018-07-24T18:30:46.408Z,100693.59
2018-07-24T18:33:14.651Z,100696.81
2018-07-24T18:35:42.841Z,100697.03
2018-07-24T18:38:11.060Z,100700.77
2018-07-24T18:40:39.292Z,100699.59
2018-07-24T18:43:08.020Z,100702.53
2018-07-24T18:45:36.272Z,100698.89
2018-07-24T18:48:04.784Z,100691.20
2018-07-24T18:50:33.046Z,100697.08
2018-07-24T18:53:01.304Z,100695.95
2018-07-24T18:55:29.540Z,100700.77
2018-07-24T18:57:57.773Z,100699.84
2018-07-24T19:00:26.033Z,100702.51
2018-07-24T19:02:54.247Z,100705.92
2018-07-24T19:05:22.512Z,100705.89
2018-07-24T19:07:50.756Z,100704.10
2018-07-24T19:10:18.980Z,100708.65
2018-07-24T19:12:47.255Z,100715.34
2018-07-24T19:15:15.536Z,100710.89
2018-07-24T19:17:43.761Z,100709.70
2018-07-24T19:20:11.985Z,100717.24
2018-07-24T19:22:40.200Z,100717.16
2018-07-24T19:25:08.412Z,100716.80
2018-07-24T19:27:36.625Z,100718.31
2018-07-24T19:30:05.421Z,100720.42
2018-07-24T19:32:33.733Z,100728.78
2018-07-24T19:35:01.956Z,100727.91
2018-07-24T19:37:30.188Z,100731.70
2018-07-24T19:39:58.408Z,100726.99
2018-07-24T19:42:26.776Z,100732.63
2018-07-24T19:44:55.001Z,100734.48
2018-07-24T19:47:23.228Z,100737.72
2018-07-24T19:49:51.566Z,100746.37
2018-07-24T19:52:19.722Z,100744.38
2018-07-24T19:54:47.964Z,100744.05
2018-07-24T19:57:16.177Z,100742.91
2018-07-24T19:59:44.408Z,100747.19
2018-07-24T20:02:12.744Z,100748.70
2018-07-24T20:04:40.979Z,100747.83
2018-07-24T20:07:09.385Z,100754.31
2018-07-24T20:09:37.613Z,100761.06
2018-07-24T20:12:05.862Z,100760.72
2018-07-24T20:14:34.140Z,100754.36
2018-07-24T20:17:02.356Z,100761.13
2018-07-24T20:19:30.573Z,100755.36
2018-07-24T20:21:58.968Z,100760.69
2018-07-24T20:24:27.196Z,100757.09
2018-07-24T20:26:55.421Z,100757.31
2018-07-24T20:29:23.652Z,100765.11
2018-07-24T20:31:51.900Z,100760.11
2018-07-24T20:34:20.149Z,100771.16
2018-07-24T20:36:48.603Z,100759.39
2018-07-24T20:39:16.824Z,100766.27
2018-07-24T20:41:45.081Z,100765.13
2018-07-24T20:44:13.257Z,100767.73
2018-07-24T20:46:41.492Z,100761.59
2018-07-24T20:49:09.726Z,100762.87
2018-07-24T20:51:37.960Z,100763.81
2018-07-24T20:54:06.192Z,100767.77
2018-07-24T20:56:34.430Z,100767.98
2018-07-24T20:59:02.648Z,100762.13
2018-07-24T21:01:30.910Z,100767.73
2018-07-24T21:03:59.116Z,100763.05
2018-07-24T21:06:27.341Z,100763.45
2018-07-24T21:08:55.564Z,100766.30
2018-07-24T21:11:23.772Z,100764.56
2018-07-24T21:13:52.028Z,100763.67
2018-07-24T21:16:20.233Z,100764.90
2018-07-24T21:18:48.689Z,100761.27
2018-07-24T21:21:16.988Z,100761.13
2018-07-24T21:23:45.184Z,100760.77
2018-07-24T21:26:13.448Z,100762.59
2018-07-24T21:28:41.652Z,100765.50
2018-07-24T21:31:09.853Z,100768.08
2018-07-24T21:33:38.060Z,100768.24
2018-07-24T21:36:06.265Z,100771.95
2018-07-24T21:38:34.503Z,100773.50
2018-07-24T21:41:02.760Z,100769.66
2018-07-24T21:43:31.000Z,100775.61
2018-07-24T21:45:59.232Z,100779.91
2018-07-24T21:48:27.452Z,100784.62
2018-07-24T21:50:55.677Z,100777.25
2018-07-24T21:53:23.937Z,100777.22
2018-07-24T21:55:52.157Z,100780.09
2018-07-24T21:58:20.433Z,100781.59
2018-07-24T22:00:52.764Z,100779.95
2018-07-24T22:03:20.972Z,100774.75
2018-07-24T22:05:49.178Z,100778.22
2018-07-24T22:08:17.381Z,100778.41
2018-07-24T22:10:45.649Z,100772.55
2018-07-24T22:13:13.864Z,100783.84
2018-07-24T22:15:42.072Z,100787.00
2018-07-24T22:18:10.342Z,100784.70
2018-07-24T22:20:38.477Z,100793.89
2018-07-24T22:23:06.720Z,100790.27
2018-07-24T22:25:34.933Z,100790.20
2018-07-24T22:28:03.132Z,100801.56
2018-07-24T22:30:31.336Z,100795.24
2018-07-24T22:32:59.668Z,100793.66
2018-07-24T22:35:27.892Z,100802.02
2018-07-24T22:37:56.564Z,100805.50
2018-07-24T22:40:24.785Z,100806.56
2018-07-24T22:42:53.253Z,100804.72
2018-07-24T22:45:21.444Z,100803.97
2018-07-24T22:47:49.652Z,100799.45
2018-07-24T22:50:17.939Z,100799.76
2018-07-24T22:52:46.213Z,100803.82
2018-07-24T22:55:14.465Z,100801.86
2018-07-24T22:57:42.664Z,100806.60
2018-07-24T23:00:10.917Z,100803.55
2018-07-24T23:02:39.162Z,100805.36
2018-07-24T23:05:07.400Z,100811.30
2018-07-24T23:07:35.612Z,100805.80
2018-07-24T23:10:03.859Z,100804.87
2018-07-24T23:12:32.067Z,100806.40
2018-07-24T23:15:00.605Z,100800.69
2018-07-24T23:17:28.877Z,100799.78
2018-07-24T23:19:57.197Z,100796.31
2018-07-24T23:22:25.406Z,100801.58
2018-07-24T23:24:53.641Z,100802.63
2018-07-24T23:27:21.848Z,100794.53
2018-07-24T23:29:50.091Z,100801.12
2018-07-24T23:32:18.321Z,100804.88
2018-07-24T23:34:46.536Z,100806.19
2018-07-24T23:37:14.732Z,100811.08
2018-07-24T23:39:42.956Z,100813.48
2018-07-24T23:42:11.168Z,100807.46
2018-07-24T23:44:39.417Z,100806.86
2018-07-24T23:47:07.640Z,100807.98
2018-07-24T23:49:35.862Z,100807.23
2018-07-24T23:52:04.080Z,100806.33
2018-07-24T23:54:32.316Z,100811.66
2018-07-24T23:57:00.504Z,100808.80
2018-07-24T23:59:28.724Z,100803.64
